Time;durP1;ratioP1;P1;durP2;ratioP2;P2;SDS_P1;SDS_P2;PMS_P1;PMS_P2;Temp;Humidity;BMP_temperature;BMP_pressure;BME280_temperature;BME280_humidity;BME280_pressure;Samples;Min_cycle;Max_cycle;Signal;HPM_P1;HPM_P2
2023/01/14 00:01:33;;;;;;;12.25;2.90;;;;;;;7.44;81.12;99757.91;5042160;28;20465;-80
2023/01/14 00:03:59;;;;;;;18.50;6.10;;;;;;;7.39;81.43;99760.53;5042602;28;20033;-80
2023/01/14 00:06:27;;;;;;;22.00;4.45;;;;;;;7.34;81.37;99756.66;5042265;28;20086;-80
2023/01/14 00:08:54;;;;;;;20.00;5.10;;;;;;;7.40;81.61;99756.75;5041720;28;20088;-80
2023/01/14 00:11:45;;;;;;;18.38;5.53;;;;;;;7.37;81.66;99758.06;5042582;28;20425;-79
2023/01/14 00:14:05;;;;;;;14.10;3.65;;;;;;;7.36;81.19;99756.44;5041863;28;20119;-78
2023/01/14 00:16:30;;;;;;;9.43;3.22;;;;;;;7.49;81.34;99747.16;5040880;28;20035;-80
2023/01/14 00:18:56;;;;;;;12.67;4.20;;;;;;;7.45;80.86;99738.69;5041979;28;20044;-79
2023/01/14 00:21:21;;;;;;;19.03;3.40;;;;;;;7.33;81.65;99741.47;5046095;28;20254;-79
2023/01/14 00:23:46;;;;;;;15.73;4.43;;;;;;;7.42;81.39;99741.06;5046017;28;20322;-79
2023/01/14 00:26:14;;;;;;;17.90;3.93;;;;;;;7.45;81.24;99735.13;5045913;28;20765;-79
2023/01/14 00:28:40;;;;;;;15.27;4.88;;;;;;;7.48;81.25;99731.94;5045534;28;20270;-79
2023/01/14 00:31:09;;;;;;;21.73;5.75;;;;;;;7.58;81.26;99742.16;5046309;28;20029;-78
2023/01/14 00:33:36;;;;;;;21.08;4.32;;;;;;;7.54;81.01;99728.25;5046334;28;20400;-79
2023/01/14 00:36:03;;;;;;;23.08;4.32;;;;;;;7.54;80.84;99736.41;5046142;28;20057;-79
2023/01/14 00:38:28;;;;;;;25.45;5.25;;;;;;;7.38;80.99;99732.59;5045174;28;20033;-79
2023/01/14 00:41:11;;;;;;;19.38;4.70;;;;;;;7.53;80.96;99739.34;5045616;28;20040;-79
2023/01/14 00:43:39;;;;;;;24.67;3.65;;;;;;;7.54;80.40;99736.41;5045659;28;20031;-78
2023/01/14 00:46:06;;;;;;;12.77;3.63;;;;;;;7.35;80.50;99744.75;5045361;28;20057;-78
2023/01/14 00:48:36;;;;;;;21.52;5.63;;;;;;;7.42;81.17;99755.44;5045469;28;20036;-79
2023/01/14 00:51:02;;;;;;;18.48;4.85;;;;;;;7.39;80.82;99749.66;5045670;28;20037;-79
2023/01/14 00:53:28;;;;;;;14.20;4.85;;;;;;;7.33;80.81;99752.31;5045462;28;20424;-79
2023/01/14 00:55:54;;;;;;;14.75;3.05;;;;;;;7.38;80.84;99758.88;5045356;28;20091;-78
2023/01/14 00:58:19;;;;;;;10.43;3.58;;;;;;;7.39;81.02;99765.94;5045095;28;20072;-79
2023/01/14 01:00:45;;;;;;;11.90;4.00;;;;;;;7.46;80.25;99772.06;5045563;28;20037;-79
2023/01/14 01:03:11;;;;;;;17.55;4.30;;;;;;;7.40;80.63;99762.19;5044096;28;20103;-79
2023/01/14 01:05:36;;;;;;;13.13;3.42;;;;;;;7.46;80.59;99766.63;5045346;28;20630;-79
2023/01/14 01:08:06;;;;;;;11.40;3.00;;;;;;;7.46;81.11;99772.88;5043562;28;20082;-79
2023/01/14 01:10:34;;;;;;;17.50;4.07;;;;;;;7.53;80.55;99783.56;5045357;28;20032;-79
2023/01/14 01:13:00;;;;;;;22.25;6.88;;;;;;;7.38;80.74;99780.59;5045199;28;20112;-78
2023/01/14 01:15:25;;;;;;;19.40;3.47;;;;;;;7.45;81.56;99786.69;5045372;28;20120;-79
2023/01/14 01:17:51;;;;;;;14.63;4.13;;;;;;;7.46;80.60;99788.34;5044632;28;20032;-79
2023/01/14 01:20:16;;;;;;;26.70;3.97;;;;;;;7.36;81.61;99792.50;5045004;28;20029;-79
2023/01/14 01:22:41;;;;;;;14.35;3.78;;;;;;;7.30;81.55;99796.16;5045070;28;20434;-78
2023/01/14 01:25:07;;;;;;;18.20;4.67;;;;;;;7.34;82.22;99801.97;5045230;28;20053;-78
2023/01/14 01:27:32;;;;;;;44.63;6.40;;;;;;;7.58;81.48;99796.41;5044559;28;20289;-79
2023/01/14 01:29:58;;;;;;;17.92;5.70;;;;;;;7.57;80.69;99801.00;5044155;28;20126;-77
2023/01/14 01:32:24;;;;;;;27.87;4.03;;;;;;;7.52;81.32;99802.81;5045029;28;20043;-79
2023/01/14 01:34:49;;;;;;;17.48;4.32;;;;;;;7.57;81.32;99802.91;5043238;28;20303;-79
2023/01/14 01:37:15;;;;;;;27.00;5.38;;;;;;;7.52;81.10;99800.94;5044366;28;20029;-79
2023/01/14 01:39:40;;;;;;;26.87;6.33;;;;;;;7.47;81.72;99798.09;5045009;28;20029;-79
2023/01/14 01:42:12;;;;;;;26.08;5.18;;;;;;;7.43;81.36;99808.63;5044521;28;20331;-78
2023/01/14 01:44:37;;;;;;;16.10;3.97;;;;;;;7.35;81.23;99799.00;5044598;28;20056;-78
2023/01/14 01:47:03;;;;;;;17.70;4.80;;;;;;;7.38;81.96;99802.28;5044840;28;20028;-77
2023/01/14 01:49:33;;;;;;;26.27;4.75;;;;;;;7.39;81.31;99817.47;5044511;28;20114;-78
2023/01/14 01:52:23;;;;;;;13.27;4.13;;;;;;;7.33;81.21;99806.56;5044205;28;20079;-78
2023/01/14 01:54:54;;;;;;;16.58;3.85;;;;;;;7.49;81.04;99809.53;5044775;28;20039;-79
2023/01/14 01:57:21;;;;;;;13.18;3.22;;;;;;;7.38;80.72;99810.44;5044134;28;20033;-78
2023/01/14 01:59:55;;;;;;;22.20;4.75;;;;;;;7.21;81.63;99813.91;5044188;28;20397;-79
2023/01/14 02:02:23;;;;;;;11.95;4.32;;;;;;;7.24;81.84;99816.16;5044130;28;20036;-79
2023/01/14 02:04:48;;;;;;;33.85;6.43;;;;;;;7.18;82.21;99820.63;5044443;28;20067;-78
2023/01/14 02:07:22;;;;;;;14.18;3.88;;;;;;;7.31;81.73;99808.69;5043935;28;20936;-79
2023/01/14 02:09:53;;;;;;;17.42;4.50;;;;;;;7.40;81.57;99801.00;5044468;28;20412;-79
2023/01/14 02:12:36;;;;;;;22.05;4.10;;;;;;;7.41;81.63;99802.63;5043780;28;20280;-78
2023/01/14 02:15:30;;;;;;;16.52;4.15;;;;;;;7.36;81.44;99811.47;5044119;28;20059;-79
2023/01/14 02:18:26;;;;;;;24.67;3.60;;;;;;;7.35;81.62;99809.00;5043866;28;20036;-79
2023/01/14 02:21:17;;;;;;;13.48;2.63;;;;;;;7.28;81.75;99809.16;5043834;28;20094;-79
2023/01/14 02:24:06;;;;;;;19.52;5.40;;;;;;;7.19;82.23;99807.88;5043934;28;20099;-79
2023/01/14 02:26:34;;;;;;;13.15;3.80;;;;;;;7.22;82.32;99818.28;5043898;28;20037;-78
2023/01/14 02:29:36;;;;;;;24.17;4.32;;;;;;;7.32;81.88;99807.59;5043401;28;20625;-79
2023/01/14 02:32:10;;;;;;;17.48;3.85;;;;;;;7.36;81.72;99811.47;5044261;28;20043;-78
2023/01/14 02:34:50;;;;;;;;;;;;;;;7.34;81.59;99805.47;5044154;28;20039;-79
2023/01/14 02:37:48;;;;;;;14.48;4.53;;;;;;;7.35;81.33;99815.28;5043291;28;19916;-79
2023/01/14 02:40:20;;;;;;;9.73;2.92;;;;;;;7.14;82.50;99815.94;5038504;28;20037;-79
2023/01/14 02:45:55;;;;;;;13.90;5.15;;;;;;;7.22;81.76;99794.66;5043654;28;20059;-77
2023/01/14 02:48:22;;;;;;;14.82;3.92;;;;;;;7.24;81.70;99791.75;5042286;28;20037;-79
2023/01/14 02:50:48;;;;;;;25.45;5.22;;;;;;;7.24;81.87;99802.59;5042843;28;20037;-79
2023/01/14 02:53:17;;;;;;;25.50;6.38;;;;;;;7.27;82.03;99788.53;5043041;28;20056;-79
2023/01/14 02:55:42;;;;;;;16.02;3.95;;;;;;;7.32;81.82;99794.03;5042718;28;20029;-79
2023/01/14 02:58:20;;;;;;;16.70;4.30;;;;;;;7.24;81.77;99789.03;5042549;28;20043;-80
2023/01/14 03:01:03;;;;;;;13.80;3.92;;;;;;;7.24;81.63;99783.59;5042824;28;20033;-78
2023/01/14 03:03:47;;;;;;;13.38;3.20;;;;;;;7.10;82.28;99770.31;5042314;28;20086;-78
2023/01/14 03:06:36;;;;;;;10.27;5.43;;;;;;;7.17;82.16;99763.91;5042392;28;20494;-79
2023/01/14 03:09:14;;;;;;;20.88;5.22;;;;;;;7.10;82.03;99756.75;5042548;28;20045;-78
2023/01/14 03:11:53;;;;;;;27.77;5.25;;;;;;;7.21;82.13;99763.22;5042386;28;20347;-78
2023/01/14 03:14:27;;;;;;;16.80;5.70;;;;;;;7.20;81.84;99752.59;5042314;28;20033;-78
2023/01/14 03:16:58;;;;;;;;;;;;;;;7.06;82.04;99750.16;5042878;28;20036;-79
2023/01/14 03:19:34;;;;;;;9.80;4.35;;;;;;;7.08;82.54;99745.31;5041866;28;19944;-79
2023/01/14 03:22:03;;;;;;;21.02;5.30;;;;;;;7.15;82.68;99734.34;5042782;28;20032;-79
2023/01/14 03:24:33;;;;;;;28.48;3.85;;;;;;;7.29;81.98;99729.44;5042131;28;20040;-79
2023/01/14 03:27:06;;;;;;;21.27;4.63;;;;;;;7.21;81.21;99729.84;5042615;28;20068;-78
2023/01/14 03:29:36;;;;;;;11.95;3.70;;;;;;;7.23;81.99;99735.84;5041969;28;20041;-79
2023/01/14 03:32:10;;;;;;;13.30;4.53;;;;;;;7.32;81.93;99726.22;5043242;28;20078;-79
2023/01/14 03:34:41;;;;;;;34.72;5.53;;;;;;;7.28;81.74;99732.41;5042468;28;20025;-78
2023/01/14 03:37:11;;;;;;;9.60;3.65;;;;;;;7.32;81.47;99725.44;5041883;28;20465;-77
2023/01/14 03:39:38;;;;;;;14.48;5.22;;;;;;;7.27;81.12;99718.00;5042453;28;20036;-79
2023/01/14 03:42:17;;;;;;;14.23;3.55;;;;;;;7.29;81.19;99713.19;5042394;28;20028;-79
2023/01/14 03:44:57;;;;;;;20.08;3.50;;;;;;;7.20;81.29;99715.44;5042128;28;20041;-79
2023/01/14 03:47:24;;;;;;;15.48;3.95;;;;;;;7.21;81.56;99705.44;5041106;28;20048;-79
2023/01/14 03:49:51;;;;;;;11.18;2.92;;;;;;;7.23;81.41;99709.56;5042549;28;20039;-80
2023/01/14 03:52:32;;;;;;;16.30;3.60;;;;;;;7.14;81.44;99705.56;5042594;28;20041;-78
2023/01/14 03:55:03;;;;;;;19.63;5.22;;;;;;;7.14;81.32;99707.47;5042018;28;20432;-78
2023/01/14 03:57:56;;;;;;;16.40;5.47;;;;;;;7.21;81.42;99706.25;5042052;28;20040;-79
2023/01/14 04:00:40;;;;;;;22.35;4.88;;;;;;;7.24;80.94;99707.66;5042464;28;20041;-80
2023/01/14 04:03:09;;;;;;;;;;;;;;;7.19;80.97;99702.13;5042615;28;20413;-78
2023/01/14 04:05:35;;;;;;;17.45;2.97;;;;;;;7.17;81.14;99705.09;5042180;28;21536;-79
2023/01/14 04:08:03;;;;;;;17.25;3.88;;;;;;;7.16;81.10;99702.63;5041522;28;20025;-79
2023/01/14 04:10:28;;;;;;;14.55;4.35;;;;;;;7.14;81.94;99710.19;5042169;28;20035;-79
2023/01/14 04:15:37;;;;;;;13.00;3.10;;;;;;;7.23;81.50;99708.72;5042463;28;20055;-78
2023/01/14 04:18:03;;;;;;;19.23;4.13;;;;;;;7.24;81.24;99702.25;5041885;28;20462;-78
2023/01/14 04:20:28;;;;;;;20.65;5.13;;;;;;;6.99;81.66;99692.56;5041645;28;20258;-78
2023/01/14 04:22:53;;;;;;;11.60;4.70;;;;;;;7.08;81.62;99682.13;5041735;28;20271;-79
2023/01/14 04:25:19;;;;;;;13.13;3.90;;;;;;;7.03;81.57;99679.34;5041319;28;20635;-79
2023/01/14 04:27:44;;;;;;;18.08;4.15;;;;;;;7.17;82.27;99677.16;5041182;28;20032;-79
2023/01/14 04:30:10;;;;;;;13.27;3.70;;;;;;;7.07;81.58;99667.78;5041540;28;20037;-79
2023/01/14 04:32:35;;;;;;;25.27;6.90;;;;;;;7.15;81.83;99668.44;5041847;28;20278;-79
2023/01/14 04:35:01;;;;;;;16.08;4.32;;;;;;;7.21;81.68;99673.72;5042192;28;20068;-80
2023/01/14 04:37:26;;;;;;;14.90;4.35;;;;;;;7.11;81.66;99668.13;5041561;28;20033;-78
2023/01/14 04:39:52;;;;;;;11.23;3.17;;;;;;;7.10;81.50;99669.16;5041604;28;20033;-78
2023/01/14 04:42:26;;;;;;;12.40;4.03;;;;;;;6.87;82.56;99663.63;5042029;28;20254;-78
2023/01/14 04:45:02;;;;;;;13.93;4.03;;;;;;;6.92;82.55;99659.34;5041487;28;20620;-79
2023/01/14 04:47:29;;;;;;;21.33;5.35;;;;;;;6.97;82.32;99648.63;5041391;28;20429;-79
2023/01/14 04:49:54;;;;;;;15.52;3.63;;;;;;;7.01;82.19;99655.19;5041448;28;20041;-79
2023/01/14 04:52:23;;;;;;;19.23;4.45;;;;;;;6.89;81.85;99652.56;5041852;28;20039;-79
2023/01/14 04:54:49;;;;;;;16.75;4.47;;;;;;;6.98;82.00;99642.94;5041802;28;20132;-79
2023/01/14 04:57:14;;;;;;;14.35;4.10;;;;;;;6.98;81.52;99645.66;5041268;28;20119;-79
2023/01/14 04:59:39;;;;;;;14.53;4.47;;;;;;;6.97;81.48;99632.34;5041830;28;20039;-79
2023/01/14 05:02:04;;;;;;;16.73;4.70;;;;;;;6.99;81.04;99632.94;5041645;28;20264;-79
2023/01/14 05:04:33;;;;;;;16.05;3.72;;;;;;;7.03;80.89;99630.56;5042048;28;20301;-79
2023/01/14 05:07:01;;;;;;;13.32;2.63;;;;;;;6.82;81.61;99631.00;5044595;28;20036;-79
2023/01/14 05:09:26;;;;;;;19.48;4.63;;;;;;;6.95;81.29;99624.47;5045031;28;20041;-79
2023/01/14 05:11:51;;;;;;;17.33;4.43;;;;;;;6.97;81.00;99618.81;5044975;28;20041;-79
2023/01/14 05:14:17;;;;;;;12.88;3.60;;;;;;;6.92;80.92;99613.28;5045346;28;20040;-79
2023/01/14 05:16:42;;;;;;;14.63;4.43;;;;;;;6.92;80.45;99608.69;5045297;28;20642;-79
2023/01/14 05:19:07;;;;;;;11.80;4.00;;;;;;;6.92;80.65;99592.41;5045055;28;20624;-79
2023/01/14 05:21:32;;;;;;;13.00;3.13;;;;;;;6.90;80.26;99602.69;5045304;28;20029;-79
2023/01/14 05:23:58;;;;;;;14.23;3.40;;;;;;;6.96;79.90;99598.16;5045099;28;20048;-78
2023/01/14 05:26:23;;;;;;;12.10;3.00;;;;;;;6.91;80.06;99588.09;5044603;28;20620;-79
2023/01/14 05:28:48;;;;;;;10.30;3.08;;;;;;;6.91;79.89;99584.53;5044480;28;20083;-79
2023/01/14 05:31:14;;;;;;;11.73;4.40;;;;;;;6.91;79.80;99576.41;5044872;28;20029;-79
2023/01/14 05:33:39;;;;;;;14.63;3.35;;;;;;;6.91;79.62;99581.84;5044817;28;20076;-79
2023/01/14 05:36:05;;;;;;;19.33;3.92;;;;;;;6.88;79.29;99570.41;5045158;28;20025;-79
2023/01/14 05:38:30;;;;;;;16.25;3.15;;;;;;;6.93;79.36;99574.28;5044777;28;20052;-79
2023/01/14 05:40:55;;;;;;;17.38;2.83;;;;;;;6.94;78.95;99576.75;5044720;28;20165;-79
2023/01/14 05:46:12;;;;;;;20.48;3.90;;;;;;;6.93;78.92;99558.84;5044884;28;20270;-79
2023/01/14 05:48:37;;;;;;;13.85;3.63;;;;;;;6.86;78.47;99548.16;5044212;28;20059;-78
2023/01/14 05:51:04;;;;;;;9.43;2.88;;;;;;;6.77;78.41;99550.44;5045155;28;20098;-79
2023/01/14 05:53:29;;;;;;;12.02;3.13;;;;;;;6.80;78.45;99538.28;5045009;28;20116;-79
2023/01/14 05:55:57;;;;;;;12.85;4.88;;;;;;;6.79;78.42;99549.38;5043107;28;20171;-78
2023/01/14 05:58:23;;;;;;;9.18;3.10;;;;;;;6.80;78.13;99549.13;5044196;28;20033;-80
2023/01/14 06:06:23;;;;;;;10.68;3.90;;;;;;;6.78;78.21;99507.91;5044623;28;20052;-78
2023/01/14 06:08:50;;;;;;;9.60;3.10;;;;;;;6.81;78.32;99514.72;5044196;28;20120;-80
2023/01/14 06:11:15;;;;;;;15.32;4.30;;;;;;;6.71;78.34;99518.09;5044328;28;20474;-79
2023/01/14 06:13:41;;;;;;;14.55;2.90;;;;;;;6.65;78.48;99503.66;5043727;28;20209;-79
2023/01/14 06:16:07;;;;;;;9.98;3.05;;;;;;;6.70;78.19;99519.16;5043795;28;20116;-79
2023/01/14 06:18:41;;;;;;;26.65;6.05;;;;;;;6.69;78.47;99506.69;5044030;28;20115;-79
2023/01/14 06:21:07;;;;;;;22.88;4.03;;;;;;;6.74;78.04;99504.03;5043957;28;20398;-79
2023/01/14 06:23:33;;;;;;;10.10;3.05;;;;;;;6.72;78.13;99501.59;5044228;28;20055;-78
2023/01/14 06:25:59;;;;;;;10.93;2.53;;;;;;;6.68;78.06;99491.47;5043979;28;20037;-79
2023/01/14 06:28:24;;;;;;;20.25;3.22;;;;;;;6.65;77.95;99484.69;5043283;28;20048;-79
2023/01/14 06:30:49;;;;;;;12.48;2.17;;;;;;;6.64;78.03;99480.31;5043708;28;20487;-79
2023/01/14 06:33:14;;;;;;;7.25;2.38;;;;;;;6.58;77.96;99484.84;5043772;28;20499;-79
2023/01/14 06:35:43;;;;;;;18.40;5.23;;;;;;;6.57;78.46;99464.22;5043445;28;20048;-79
2023/01/14 06:38:09;;;;;;;15.02;3.80;;;;;;;6.58;78.41;99462.34;5043370;28;20347;-78
2023/01/14 06:40:37;;;;;;;10.43;3.30;;;;;;;6.61;78.30;99469.97;5043981;28;20120;-79
2023/01/14 06:43:03;;;;;;;10.00;3.05;;;;;;;6.67;78.25;99462.75;5043692;28;20644;-79
2023/01/14 06:45:28;;;;;;;6.03;1.80;;;;;;;6.70;77.91;99456.84;5043022;28;20052;-79
2023/01/14 06:47:53;;;;;;;9.93;3.10;;;;;;;6.74;77.90;99466.13;5043097;28;20474;-79
2023/01/14 06:50:19;;;;;;;9.97;2.63;;;;;;;6.76;77.97;99451.25;5043184;28;20269;-79
2023/01/14 06:52:44;;;;;;;9.80;2.25;;;;;;;6.71;77.40;99448.44;5043514;28;20570;-79
2023/01/14 06:55:10;;;;;;;13.52;3.33;;;;;;;6.72;77.39;99441.97;5043512;28;20064;-79
2023/01/14 06:57:35;;;;;;;8.15;2.92;;;;;;;6.74;77.55;99439.00;5042966;28;20394;-79
2023/01/14 07:00:01;;;;;;;14.30;3.80;;;;;;;6.73;77.36;99421.94;5043267;28;20060;-79
2023/01/14 07:02:26;;;;;;;15.87;4.63;;;;;;;6.74;77.26;99420.06;5042061;28;20059;-79
2023/01/14 07:04:51;;;;;;;16.35;3.00;;;;;;;6.77;77.70;99419.56;5043080;28;20258;-78
2023/01/14 07:07:17;;;;;;;6.80;2.30;;;;;;;6.76;77.43;99418.75;5042351;28;20029;-79
2023/01/14 07:09:42;;;;;;;18.38;5.43;;;;;;;6.74;77.54;99404.63;5043046;28;20043;-79
2023/01/14 07:12:08;;;;;;;9.95;2.78;;;;;;;6.78;77.47;99399.53;5042880;28;20037;-79
2023/01/14 07:14:33;;;;;;;13.00;4.37;;;;;;;6.73;77.36;99402.16;5043340;28;20115;-79
2023/01/14 07:17:01;;;;;;;9.57;2.35;;;;;;;6.78;77.56;99399.53;5043264;28;20266;-80
2023/01/14 07:19:26;;;;;;;16.35;3.50;;;;;;;6.84;77.32;99408.53;5042684;28;20059;-79
2023/01/14 07:21:51;;;;;;;12.82;2.45;;;;;;;6.74;77.59;99401.91;5043181;28;20025;-79
2023/01/14 07:24:16;;;;;;;15.83;4.87;;;;;;;6.81;77.31;99388.19;5043010;28;20040;-79
2023/01/14 07:26:42;;;;;;;10.73;2.50;;;;;;;6.80;77.96;99388.44;5042619;28;20643;-79
2023/01/14 07:29:07;;;;;;;8.10;1.77;;;;;;;6.76;78.63;99383.50;5042477;28;20296;-79
2023/01/14 07:31:32;;;;;;;7.70;2.33;;;;;;;6.72;79.86;99366.13;5042777;28;20296;-79
2023/01/14 07:33:57;;;;;;;13.83;2.33;;;;;;;6.69;79.95;99368.50;5042316;28;20592;-80
2023/01/14 07:36:23;;;;;;;11.87;2.50;;;;;;;6.73;80.49;99358.81;5042455;28;20294;-78
2023/01/14 07:38:48;;;;;;;10.20;2.37;;;;;;;6.69;80.95;99344.13;5041647;28;20272;-79
2023/01/14 07:41:18;;;;;;;9.50;2.27;;;;;;;6.64;81.39;99340.28;5041952;28;20266;-78
2023/01/14 07:43:47;;;;;;;7.38;2.33;;;;;;;6.61;81.98;99335.34;5042437;28;20281;-79
2023/01/14 07:46:13;;;;;;;12.60;2.60;;;;;;;6.56;82.47;99329.84;5041421;28;20053;-80
2023/01/14 07:48:39;;;;;;;7.03;2.50;;;;;;;6.60;82.92;99314.75;5041759;28;20048;-80
2023/01/14 07:51:06;;;;;;;22.88;3.65;;;;;;;6.57;82.92;99317.94;5041763;28;20052;-79
2023/01/14 07:53:32;;;;;;;10.02;1.92;;;;;;;6.58;83.49;99300.63;5041497;28;20226;-78
2023/01/14 07:56:01;;;;;;;10.30;3.58;;;;;;;6.57;83.63;99301.69;5042036;28;20069;-78
2023/01/14 07:58:27;;;;;;;8.48;2.25;;;;;;;6.49;84.35;99294.81;5041879;28;20421;-78
2023/01/14 08:00:53;;;;;;;9.68;2.03;;;;;;;6.45;85.05;99298.28;5042064;28;20033;-79
2023/01/14 08:03:19;;;;;;;7.35;2.53;;;;;;;6.48;85.42;99298.59;5042396;28;20037;-80
2023/01/14 08:05:44;;;;;;;7.00;2.03;;;;;;;6.37;85.58;99303.03;5042048;28;20044;-78
2023/01/14 08:08:10;;;;;;;7.18;2.20;;;;;;;6.38;86.43;99310.09;5042196;28;20032;-79
2023/01/14 08:10:35;;;;;;;11.20;3.00;;;;;;;6.36;86.67;99271.63;5042170;28;20108;-78
2023/01/14 08:13:01;;;;;;;15.85;4.20;;;;;;;6.28;86.47;99282.88;5041040;28;20029;-81
2023/01/14 08:15:26;;;;;;;7.43;2.33;;;;;;;6.28;86.78;99263.94;5037544;28;20494;-80
2023/01/14 08:17:54;;;;;;;11.25;2.50;;;;;;;6.21;87.27;99255.13;5042223;28;20128;-80
2023/01/14 08:20:22;;;;;;;18.70;4.65;;;;;;;6.27;88.01;99248.72;5042286;28;20052;-80
2023/01/14 08:22:48;;;;;;;8.43;2.65;;;;;;;6.18;87.92;99234.81;5042455;28;20041;-79
2023/01/14 08:25:13;;;;;;;12.68;3.05;;;;;;;6.25;87.66;99223.78;5041951;28;20052;-78
2023/01/14 08:27:38;;;;;;;18.50;3.30;;;;;;;6.22;88.15;99237.84;5042128;28;20072;-81
2023/01/14 08:30:04;;;;;;;12.85;2.97;;;;;;;6.22;88.21;99235.13;5041836;28;20049;-79
2023/01/14 08:32:30;;;;;;;16.77;4.60;;;;;;;6.24;88.40;99235.72;5042309;28;20486;-80
2023/01/14 08:34:55;;;;;;;9.40;4.28;;;;;;;6.14;88.45;99215.53;5042023;28;20067;-79
2023/01/14 08:37:20;;;;;;;7.53;2.53;;;;;;;6.18;88.58;99219.38;5042181;28;20095;-79
2023/01/14 08:39:46;;;;;;;11.13;3.07;;;;;;;6.28;88.81;99224.13;5043301;28;20284;-80
2023/01/14 08:42:11;;;;;;;7.88;2.90;;;;;;;6.27;88.55;99233.31;5046583;28;20348;-79
2023/01/14 08:44:36;;;;;;;18.20;2.70;;;;;;;6.19;89.23;99214.78;5046033;28;20033;-80
2023/01/14 08:47:02;;;;;;;7.18;3.17;;;;;;;6.22;89.68;99208.06;5045695;28;20313;-83
2023/01/14 08:49:28;;;;;;;13.57;3.13;;;;;;;6.17;89.78;99195.25;5046093;28;20044;-80
2023/01/14 08:51:55;;;;;;;12.60;4.60;;;;;;;6.15;89.92;99209.06;5046235;28;20037;-79
2023/01/14 08:54:21;;;;;;;9.07;2.83;;;;;;;6.17;89.53;99198.81;5046081;28;20033;-79
2023/01/14 08:56:46;;;;;;;13.00;2.73;;;;;;;6.24;90.14;99173.44;5045540;28;20402;-78
2023/01/14 08:59:12;;;;;;;24.75;4.32;;;;;;;6.25;89.67;99161.53;5045556;28;20300;-79
2023/01/14 09:01:37;;;;;;;13.13;2.85;;;;;;;6.37;89.73;99151.41;5045135;28;20055;-77
2023/01/14 09:04:02;;;;;;;10.30;3.65;;;;;;;6.34;89.80;99157.34;5045950;28;20244;-79
2023/01/14 09:06:28;;;;;;;16.08;5.13;;;;;;;6.29;89.41;99130.19;5045680;28;20564;-79
2023/01/14 09:17:13;;;;;;;11.02;2.47;;;;;;;6.44;88.80;99118.72;5045632;28;20044;-77
2023/01/14 09:19:43;;;;;;;17.58;3.97;;;;;;;6.52;88.93;99095.78;5044738;28;20037;-79
2023/01/14 09:22:11;;;;;;;9.45;2.75;;;;;;;6.51;89.29;99086.00;5046072;28;20505;-80
2023/01/14 09:24:36;;;;;;;10.38;3.60;;;;;;;6.53;88.52;99078.44;5045361;28;20028;-80
2023/01/14 09:27:02;;;;;;;6.60;2.17;;;;;;;6.48;88.62;99086.53;5045462;28;20074;-77
2023/01/14 09:29:27;;;;;;;6.43;1.98;;;;;;;6.50;88.58;99085.22;5045060;28;20037;-78
2023/01/14 09:31:52;;;;;;;9.10;1.95;;;;;;;6.44;89.04;99071.88;5045172;28;20437;-87
2023/01/14 09:34:18;;;;;;;11.45;3.67;;;;;;;6.52;89.39;99071.41;5045798;28;20040;-85
2023/01/14 09:36:43;;;;;;;8.63;2.42;;;;;;;6.56;89.38;99072.53;5045455;28;20143;-79
2023/01/14 09:39:09;;;;;;;13.63;4.43;;;;;;;6.55;88.89;99068.19;5045496;28;20041;-81
2023/01/14 09:41:37;;;;;;;7.40;1.60;;;;;;;6.60;88.63;99065.53;5045616;28;20361;-79
2023/01/14 09:44:06;;;;;;;9.48;4.00;;;;;;;6.61;88.58;99053.63;5046160;28;20037;-81
2023/01/14 09:46:32;;;;;;;6.75;1.98;;;;;;;6.67;88.45;99050.97;5045479;28;20044;-84
2023/01/14 09:49:01;;;;;;;12.60;2.40;;;;;;;6.70;88.66;99039.63;5044955;28;20069;-80
2023/01/14 09:52:03;;;;;;;7.60;2.03;;;;;;;6.78;88.73;99031.03;5044356;28;20057;-79
2023/01/14 09:54:44;;;;;;;7.28;1.70;;;;;;;6.69;88.46;99022.53;5045467;28;20481;-80
2023/01/14 09:57:29;;;;;;;8.35;1.85;;;;;;;6.77;88.80;99019.34;5044779;28;20375;-80
2023/01/14 10:00:04;;;;;;;;;;;;;;;6.73;88.50;99044.53;5045291;28;20110;-80
2023/01/14 10:02:35;;;;;;;10.25;1.98;;;;;;;6.77;88.46;99008.53;5045533;28;20472;-80
2023/01/14 10:05:23;;;;;;;3.70;1.40;;;;;;;6.82;88.83;98993.38;5045071;28;20045;-80
2023/01/14 10:07:49;;;;;;;7.82;1.85;;;;;;;6.84;88.26;99002.91;5044654;28;20127;-79
2023/01/14 10:10:25;;;;;;;3.72;1.27;;;;;;;6.82;88.27;98988.78;5044644;28;20120;-80
2023/01/14 10:12:54;;;;;;;5.45;1.48;;;;;;;6.81;88.51;98975.50;5045121;28;20139;-80
2023/01/14 10:15:41;;;;;;;7.03;2.20;;;;;;;6.94;88.27;98975.06;5044706;28;20124;-81
2023/01/14 10:18:25;;;;;;;5.18;2.47;;;;;;;7.00;88.11;98952.34;5044823;28;20037;-80
2023/01/14 10:20:53;;;;;;;8.25;1.17;;;;;;;6.97;88.07;98938.50;5044831;28;20103;-81
2023/01/14 10:23:26;;;;;;;8.93;2.47;;;;;;;6.93;87.80;98926.53;5044986;28;20800;-80
2023/01/14 10:25:53;;;;;;;2.83;0.90;;;;;;;6.97;88.01;98925.78;5044127;28;20047;-80
2023/01/14 10:28:23;;;;;;;6.05;2.53;;;;;;;6.98;88.14;98926.56;5043761;28;20049;-79
2023/01/14 10:30:50;;;;;;;6.57;1.83;;;;;;;7.01;88.10;98920.63;5043539;28;20131;-79
2023/01/14 10:33:17;;;;;;;14.20;2.10;;;;;;;7.03;89.33;98895.97;5044868;28;20033;-81
2023/01/14 10:35:47;;;;;;;5.88;1.45;;;;;;;6.94;89.28;98909.19;5043392;28;20537;-81
2023/01/14 10:38:18;;;;;;;8.18;3.10;;;;;;;6.95;90.16;98884.56;5040928;28;20043;-81
2023/01/14 10:40:46;;;;;;;4.63;1.35;;;;;;;6.98;90.86;98894.03;5041635;28;20045;-80
2023/01/14 10:43:30;;;;;;;4.80;1.25;;;;;;;6.98;91.25;98880.50;5043943;28;20037;-84
2023/01/14 10:45:55;;;;;;;6.75;2.20;;;;;;;6.98;91.83;98858.81;5043895;28;20049;-81
2023/01/14 10:48:22;;;;;;;5.20;1.92;;;;;;;6.91;91.79;98858.25;5042837;28;20037;-80
2023/01/14 10:50:47;;;;;;;2.47;1.02;;;;;;;6.91;92.19;98848.22;5043968;28;20048;-80
2023/01/14 10:53:22;;;;;;;5.35;1.05;;;;;;;6.91;92.77;98839.28;5045283;28;20048;-85
2023/01/14 10:56:00;;;;;;;3.90;1.48;;;;;;;6.91;92.72;98831.13;5043782;28;20524;-81
2023/01/14 10:58:28;;;;;;;4.47;1.42;;;;;;;6.96;93.16;98833.88;5041941;28;20537;-79
2023/01/14 11:01:06;;;;;;;7.13;1.83;;;;;;;6.99;93.16;98820.63;5043616;28;20045;-83
2023/01/14 11:03:35;;;;;;;6.30;1.42;;;;;;;7.06;92.66;98830.41;5039344;28;20028;-81
2023/01/14 11:06:10;;;;;;;2.33;0.90;;;;;;;7.03;93.48;98820.09;5043609;28;20029;-81
2023/01/14 11:09:01;;;;;;;5.90;1.35;;;;;;;7.03;93.45;98815.50;5042660;28;20032;-80
2023/01/14 11:11:39;;;;;;;3.53;1.52;;;;;;;6.94;94.06;98807.03;5041324;28;20091;-81
2023/01/14 11:14:30;;;;;;;4.18;0.75;;;;;;;7.03;94.02;98806.53;5041705;28;20044;-82
2023/01/14 11:16:56;;;;;;;4.75;1.08;;;;;;;7.02;94.30;98800.28;5043318;28;20029;-80
2023/01/14 11:19:22;;;;;;;3.58;1.45;;;;;;;6.96;94.91;98796.75;5042707;28;20732;-81
2023/01/14 11:21:55;;;;;;;2.45;1.02;;;;;;;7.00;95.03;98791.59;5043394;28;20432;-82
2023/01/14 11:24:28;;;;;;;3.95;1.27;;;;;;;6.98;95.08;98786.47;5042470;28;20083;-80
2023/01/14 11:27:02;;;;;;;5.18;1.73;;;;;;;7.07;95.26;98788.66;5041794;28;20041;-81
2023/01/14 11:29:31;;;;;;;6.18;1.23;;;;;;;7.01;95.07;98758.03;5040093;28;20041;-79
2023/01/14 11:32:05;;;;;;;4.78;1.10;;;;;;;6.96;95.66;98760.69;5042771;28;20555;-82
2023/01/14 11:35:17;;;;;;;4.65;0.90;;;;;;;6.92;95.82;98746.88;5043389;28;20028;-83
2023/01/14 11:37:47;;;;;;;8.25;1.60;;;;;;;7.00;96.15;98735.50;5038914;28;20116;-82
2023/01/14 11:40:23;;;;;;;2.55;0.93;;;;;;;7.13;95.77;98744.22;5038798;28;20135;-82
2023/01/14 11:42:48;;;;;;;6.38;1.27;;;;;;;7.14;95.82;98712.53;5040724;28;20040;-81
2023/01/14 11:45:13;;;;;;;3.17;0.70;;;;;;;7.12;95.84;98700.03;5042115;28;20057;-82
2023/01/14 11:47:47;;;;;;;6.70;2.07;;;;;;;7.21;96.41;98680.53;5041789;28;20114;-82
2023/01/14 11:50:34;;;;;;;5.20;1.42;;;;;;;7.19;95.95;98666.44;5042278;28;20058;-84
2023/01/14 11:53:08;;;;;;;6.70;1.20;;;;;;;7.08;96.47;98642.03;5041149;28;20783;-83
2023/01/14 11:55:37;;;;;;;;;;;;;;;7.08;97.03;98650.16;5042876;28;20190;-82
2023/01/14 11:58:24;;;;;;;2.10;0.57;;;;;;;7.08;97.43;98644.72;5038948;28;19921;-82
2023/01/14 12:00:58;;;;;;;1.58;0.88;;;;;;;7.07;97.44;98632.28;5042143;28;20041;-80
2023/01/14 12:03:37;;;;;;;3.63;0.73;;;;;;;7.08;97.57;98623.03;5042844;28;20033;-85
2023/01/14 12:06:11;;;;;;;3.75;1.58;;;;;;;7.07;97.75;98615.19;5042493;28;20029;-81
2023/01/14 12:08:39;;;;;;;4.57;1.10;;;;;;;7.08;98.07;98595.94;5041905;28;20175;-81
2023/01/14 12:11:18;;;;;;;1.95;0.60;;;;;;;7.10;98.30;98599.19;5042187;28;20036;-81